createdAt,value
2017-05-22T00:02:20.981Z,7.04
2017-05-22T00:04:50.861Z,7.56
2017-05-22T00:07:21.207Z,6.90
2017-05-22T00:09:51.049Z,6.86
2017-05-22T00:12:21.948Z,7.00
2017-05-22T00:14:51.784Z,6.32
2017-05-22T00:17:22.420Z,7.24
2017-05-22T00:19:52.257Z,7.02
2017-05-22T00:22:22.139Z,7.72
2017-05-22T00:24:52.074Z,6.48
2017-05-22T00:27:21.919Z,6.78
2017-05-22T00:29:51.808Z,6.82
2017-05-22T00:32:21.651Z,7.28
2017-05-22T00:34:51.504Z,7.10
2017-05-22T00:37:21.398Z,7.16
2017-05-22T00:39:51.225Z,7.58
2017-05-22T00:42:21.148Z,7.38
2017-05-22T00:44:51.012Z,7.48
2017-05-22T00:47:21.357Z,8.08
2017-05-22T00:49:51.250Z,8.50
2017-05-22T00:52:21.083Z,8.84
2017-05-22T00:54:50.927Z,8.32
2017-05-22T00:57:20.463Z,7.10
2017-05-22T00:59:50.301Z,8.00
2017-05-22T01:02:20.150Z,8.34
2017-05-22T01:04:50.016Z,7.80
2017-05-22T01:07:19.866Z,8.38
2017-05-22T01:09:49.756Z,9.04
2017-05-22T01:12:19.592Z,8.44
2017-05-22T01:14:49.475Z,8.58
2017-05-22T01:17:19.317Z,8.98
2017-05-22T01:19:49.208Z,8.30
2017-05-22T01:22:19.068Z,8.30
2017-05-22T01:24:48.906Z,8.64
2017-05-22T01:27:18.800Z,8.36
2017-05-22T01:29:49.110Z,8.70
2017-05-22T01:32:18.956Z,9.26
2017-05-22T01:34:48.841Z,8.90
2017-05-22T01:37:18.313Z,9.60
2017-05-22T01:39:48.147Z,9.24
2017-05-22T01:42:18.036Z,8.24
2017-05-22T01:44:47.593Z,9.16
2017-05-22T01:47:17.428Z,8.68
2017-05-22T01:49:48.309Z,9.76
2017-05-22T01:52:18.155Z,9.10
2017-05-22T01:54:48.009Z,9.28
2017-05-22T01:57:17.884Z,9.66
2017-05-22T01:59:47.730Z,9.54
2017-05-22T02:02:17.621Z,9.54
2017-05-22T02:04:47.507Z,9.14
2017-05-22T02:07:17.351Z,9.60
2017-05-22T02:09:47.199Z,8.84
2017-05-22T02:12:17.083Z,9.28
2017-05-22T02:14:48.945Z,8.98
2017-05-22T02:17:18.826Z,8.70
2017-05-22T02:19:49.240Z,9.20
2017-05-22T02:22:19.149Z,9.70
2017-05-22T02:24:48.985Z,8.90
2017-05-22T02:27:18.844Z,9.64
2017-05-22T02:29:49.316Z,8.90
2017-05-22T02:32:19.163Z,8.46
2017-05-22T02:34:49.105Z,9.86
2017-05-22T02:37:18.971Z,9.36
2017-05-22T02:39:48.817Z,8.84
2017-05-22T02:42:18.710Z,9.70
2017-05-22T02:44:48.543Z,8.22
2017-05-22T02:47:18.399Z,9.02
2017-05-22T02:49:48.296Z,9.28
2017-05-22T02:52:18.127Z,8.28
2017-05-22T02:54:47.964Z,9.14
2017-05-22T02:57:17.856Z,9.32
2017-05-22T02:59:47.695Z,8.46
2017-05-22T03:02:17.881Z,8.28
2017-05-22T03:04:48.654Z,9.02
2017-05-22T03:07:18.502Z,7.74
2017-05-22T03:09:48.341Z,8.36
2017-05-22T03:12:18.243Z,8.58
2017-05-22T03:14:48.092Z,8.24
2017-05-22T03:17:17.954Z,7.86
2017-05-22T03:19:47.824Z,9.30
2017-05-22T03:22:20.844Z,8.20
2017-05-22T03:24:50.752Z,8.82
2017-05-22T03:27:21.488Z,7.60
2017-05-22T03:29:51.396Z,8.20
2017-05-22T03:32:21.235Z,8.48
2017-05-22T03:34:51.104Z,8.86
2017-05-22T03:37:21.272Z,9.56
2017-05-22T03:39:51.189Z,7.74
2017-05-22T03:42:21.027Z,9.12
2017-05-22T03:44:50.895Z,9.36
2017-05-22T03:47:21.339Z,9.20
2017-05-22T03:49:51.176Z,8.74
2017-05-22T03:52:21.045Z,7.90
2017-05-22T03:54:50.883Z,9.40
2017-05-22T03:57:20.903Z,9.66
2017-05-22T03:59:50.767Z,8.78
2017-05-22T04:02:20.606Z,8.72
2017-05-22T04:04:50.492Z,9.64
2017-05-22T04:07:20.348Z,10.22
2017-05-22T04:09:50.191Z,9.72
2017-05-22T04:12:20.084Z,8.66
2017-05-22T04:14:49.923Z,8.80
2017-05-22T04:17:20.347Z,7.80
2017-05-22T04:19:50.244Z,7.92
2017-05-22T04:22:20.080Z,8.56
2017-05-22T04:24:49.926Z,8.58
2017-05-22T04:27:19.821Z,8.44
2017-05-22T04:29:49.698Z,9.18
2017-05-22T04:32:19.572Z,8.06
2017-05-22T04:34:49.421Z,8.80
2017-05-22T04:37:19.276Z,9.34
2017-05-22T04:39:49.164Z,9.64
2017-05-22T04:42:19.001Z,8.58
2017-05-22T04:44:48.843Z,9.58
2017-05-22T04:47:18.748Z,10.06
2017-05-22T04:49:48.606Z,9.00
2017-05-22T04:52:18.458Z,11.28
2017-05-22T04:54:48.367Z,10.22
2017-05-22T04:57:18.224Z,11.18
2017-05-22T04:59:48.157Z,9.76
2017-05-22T05:02:18.038Z,10.58
2017-05-22T05:04:47.898Z,10.32
2017-05-22T05:07:17.785Z,11.34
2017-05-22T05:09:47.689Z,10.24
2017-05-22T05:12:17.531Z,10.06
2017-05-22T05:14:47.385Z,11.08
2017-05-22T05:17:17.371Z,10.16
2017-05-22T05:19:47.211Z,9.26
2017-05-22T05:22:17.111Z,9.28
2017-05-22T05:24:46.954Z,10.66
2017-05-22T05:27:16.827Z,9.80
2017-05-22T05:29:46.738Z,9.24
2017-05-22T05:32:16.580Z,10.62
2017-05-22T05:34:46.445Z,9.40
2017-05-22T05:37:16.341Z,9.18
2017-05-22T05:39:46.185Z,9.74
2017-05-22T05:42:16.035Z,10.52
2017-05-22T05:44:45.744Z,10.12
2017-05-22T05:47:15.592Z,9.48
2017-05-22T05:49:45.536Z,10.06
2017-05-22T05:52:15.377Z,9.94
2017-05-22T05:54:46.290Z,9.42
2017-05-22T05:57:16.138Z,10.24
2017-05-22T05:59:45.981Z,9.16
2017-05-22T06:02:16.118Z,9.34
2017-05-22T06:04:46.003Z,9.38
2017-05-22T06:07:15.878Z,9.74
2017-05-22T06:09:45.793Z,8.54
2017-05-22T06:12:15.706Z,10.04
2017-05-22T06:14:45.593Z,9.92
2017-05-22T06:17:15.436Z,9.50
2017-05-22T06:19:45.277Z,8.70
2017-05-22T06:22:15.168Z,9.60
2017-05-22T06:24:45.018Z,8.74
2017-05-22T06:27:16.192Z,8.68
2017-05-22T06:29:46.073Z,8.76
2017-05-22T06:32:15.951Z,9.40
2017-05-22T06:34:45.841Z,8.40
2017-05-22T06:37:16.595Z,8.08
2017-05-22T06:39:46.491Z,8.58
2017-05-22T06:42:16.323Z,8.94
2017-05-22T06:44:46.160Z,8.82
2017-05-22T06:47:16.046Z,9.28
2017-05-22T06:49:45.883Z,7.38
2017-05-22T06:52:15.773Z,8.78
2017-05-22T06:54:45.665Z,7.72
2017-05-22T06:57:15.501Z,7.78
2017-05-22T06:59:45.351Z,7.84
2017-05-22T07:02:15.232Z,7.64
2017-05-22T07:04:45.081Z,6.26
2017-05-22T07:07:14.915Z,5.92
2017-05-22T07:09:44.784Z,7.10
2017-05-22T07:12:14.621Z,6.68
2017-05-22T07:14:44.455Z,6.38
2017-05-22T07:17:14.344Z,6.82
2017-05-22T07:19:44.185Z,6.82
2017-05-22T07:22:14.028Z,6.12
2017-05-22T07:24:43.964Z,7.26
2017-05-22T07:27:13.809Z,6.54
2017-05-22T07:29:43.646Z,7.54
2017-05-22T07:32:13.536Z,6.30
2017-05-22T07:34:43.385Z,5.68
2017-05-22T07:37:13.226Z,6.86
2017-05-22T07:39:43.113Z,6.06
2017-05-22T07:42:12.952Z,6.06
2017-05-22T07:44:42.835Z,4.62
2017-05-22T07:47:12.756Z,4.70
2017-05-22T07:49:42.600Z,8.48
2017-05-22T07:52:12.469Z,3.90
2017-05-22T07:54:42.361Z,4.44
2017-05-22T07:57:12.209Z,3.52
2017-05-22T07:59:42.056Z,2.94
2017-05-22T08:02:11.951Z,4.22
2017-05-22T08:04:41.793Z,3.60
2017-05-22T08:07:11.637Z,3.32
2017-05-22T08:09:41.534Z,4.80
2017-05-22T08:12:11.375Z,3.54
2017-05-22T08:14:41.230Z,3.32
2017-05-22T08:17:11.130Z,4.60
2017-05-22T08:19:40.976Z,5.84
2017-05-22T08:22:10.836Z,4.76
2017-05-22T08:24:40.724Z,4.24
2017-05-22T08:27:10.565Z,3.22
2017-05-22T08:29:40.403Z,4.56
2017-05-22T08:32:10.289Z,8.26
2017-05-22T08:34:40.137Z,2.02
2017-05-22T08:37:11.014Z,2.10
2017-05-22T08:39:40.849Z,2.72
2017-05-22T08:42:10.704Z,2.76
2017-05-22T08:44:40.599Z,3.48
2017-05-22T08:47:10.441Z,3.02
2017-05-22T08:49:40.284Z,2.64
2017-05-22T08:52:10.229Z,5.08
2017-05-22T08:54:40.081Z,2.52
2017-05-22T08:57:09.917Z,2.84
2017-05-22T08:59:39.808Z,4.84
2017-05-22T09:02:09.659Z,3.10
2017-05-22T09:04:39.492Z,2.64
2017-05-22T09:07:09.420Z,2.40
2017-05-22T09:09:39.268Z,2.62
2017-05-22T09:12:09.108Z,3.22
2017-05-22T09:14:39.000Z,4.02
2017-05-22T09:17:08.837Z,2.64
2017-05-22T09:19:39.805Z,2.60
2017-05-22T09:22:09.651Z,2.82
2017-05-22T09:24:39.517Z,3.40
2017-05-22T09:27:09.824Z,3.10
2017-05-22T09:29:39.696Z,3.68
2017-05-22T09:32:09.540Z,3.34
2017-05-22T09:34:39.431Z,3.02
2017-05-22T09:37:09.282Z,4.64
2017-05-22T09:39:39.178Z,4.36
2017-05-22T09:42:09.025Z,4.16
2017-05-22T09:44:38.866Z,3.00
2017-05-22T09:47:08.759Z,2.12
2017-05-22T09:49:38.963Z,3.00
2017-05-22T09:52:08.803Z,2.86
2017-05-22T09:54:38.709Z,2.30
2017-05-22T09:57:08.550Z,2.20
2017-05-22T09:59:38.392Z,1.90
2017-05-22T10:02:08.276Z,2.90
2017-05-22T10:04:38.111Z,2.70
2017-05-22T10:07:07.961Z,2.84
2017-05-22T10:09:37.848Z,4.16
2017-05-22T10:12:07.689Z,2.56
2017-05-22T10:14:37.571Z,3.40
2017-05-22T10:17:07.444Z,2.22
2017-05-22T10:19:37.289Z,3.34
2017-05-22T10:22:06.640Z,4.62
2017-05-22T10:24:36.497Z,3.68
2017-05-22T10:27:06.336Z,3.78
2017-05-22T10:29:36.234Z,2.64
2017-05-22T10:32:06.075Z,2.98
2017-05-22T10:34:35.927Z,4.10
2017-05-22T10:37:05.840Z,4.80
2017-05-22T10:39:35.684Z,3.08
2017-05-22T10:42:05.591Z,3.04
2017-05-22T10:44:35.487Z,2.66
2017-05-22T10:47:05.326Z,2.44
2017-05-22T10:49:35.232Z,3.80
2017-05-22T10:52:05.087Z,2.98
2017-05-22T10:54:34.938Z,2.40
2017-05-22T10:57:04.827Z,2.60
2017-05-22T10:59:34.661Z,2.46
2017-05-22T11:02:04.175Z,2.62
2017-05-22T11:04:34.088Z,5.08
2017-05-22T11:07:03.932Z,2.82
2017-05-22T11:09:33.766Z,2.86
2017-05-22T11:12:03.655Z,3.16
2017-05-22T11:14:33.497Z,3.92
2017-05-22T11:17:03.347Z,2.88
2017-05-22T11:19:33.246Z,3.46
2017-05-22T11:22:03.097Z,3.40
2017-05-22T11:24:32.970Z,3.00
2017-05-22T11:27:02.858Z,3.24
2017-05-22T11:29:32.693Z,3.76
2017-05-22T11:32:02.532Z,3.68
2017-05-22T11:34:32.429Z,2.90
2017-05-22T11:37:02.297Z,2.68
2017-05-22T11:39:32.133Z,2.84
2017-05-22T11:42:02.022Z,3.12
2017-05-22T11:44:31.859Z,3.28
2017-05-22T11:47:01.698Z,3.42
2017-05-22T11:49:31.584Z,2.58
2017-05-22T11:52:01.423Z,3.58
2017-05-22T11:54:31.282Z,3.18
2017-05-22T11:57:01.192Z,2.98
2017-05-22T11:59:31.042Z,2.36
2017-05-22T12:02:00.893Z,2.56
2017-05-22T12:04:30.786Z,3.30
2017-05-22T12:07:00.628Z,2.74
2017-05-22T12:09:29.309Z,3.94
2017-05-22T12:11:59.225Z,3.14
2017-05-22T12:14:29.073Z,2.36
2017-05-22T12:16:58.923Z,2.20
2017-05-22T12:19:28.815Z,3.98
2017-05-22T12:21:58.660Z,2.18
2017-05-22T12:24:28.512Z,2.34
2017-05-22T12:29:37.069Z,2.98
2017-05-22T12:32:06.972Z,3.04
2017-05-22T12:34:36.825Z,2.52
2017-05-22T12:37:06.700Z,2.34
2017-05-22T12:39:36.606Z,2.60
2017-05-22T12:42:06.450Z,3.02
2017-05-22T12:44:37.342Z,3.34
2017-05-22T12:47:07.183Z,2.82
2017-05-22T12:49:38.120Z,4.72
2017-05-22T12:52:07.964Z,2.88
2017-05-22T12:54:37.816Z,3.16
2017-05-22T12:57:07.731Z,2.88
2017-05-22T12:59:40.462Z,2.50
2017-05-22T13:02:10.373Z,3.30
2017-05-22T13:04:40.209Z,3.44
2017-05-22T13:07:10.146Z,3.28
2017-05-22T13:09:40.048Z,2.66
2017-05-22T13:12:09.608Z,2.36
2017-05-22T13:14:39.500Z,2.50
2017-05-22T13:17:09.425Z,4.10
2017-05-22T13:19:39.267Z,2.54
2017-05-22T13:22:09.108Z,3.52
2017-05-22T13:24:39.028Z,3.50
2017-05-22T13:27:08.873Z,2.56
2017-05-22T13:29:38.751Z,2.70
2017-05-22T13:32:08.641Z,2.66
2017-05-22T13:34:38.483Z,2.00
2017-05-22T13:39:47.421Z,3.30
2017-05-22T13:42:17.259Z,2.66
2017-05-22T13:44:47.097Z,3.20
2017-05-22T13:47:16.979Z,1.90
2017-05-22T13:49:46.821Z,2.20
2017-05-22T13:52:16.701Z,1.76
2017-05-22T13:54:46.593Z,1.98
2017-05-22T13:57:16.440Z,2.16
2017-05-22T13:59:46.288Z,2.10
2017-05-22T14:02:16.189Z,2.18
2017-05-22T14:04:46.051Z,1.94
2017-05-22T14:07:15.912Z,1.90
2017-05-22T14:09:45.791Z,2.48
2017-05-22T14:12:15.623Z,1.80
2017-05-22T14:14:45.456Z,1.54
2017-05-22T14:17:15.351Z,1.92
2017-05-22T14:19:45.200Z,1.66
2017-05-22T14:22:15.091Z,1.58
2017-05-22T14:24:44.937Z,2.24
2017-05-22T14:27:14.794Z,2.06
2017-05-22T14:29:44.681Z,5.72
2017-05-22T14:32:14.524Z,2.92
2017-05-22T14:34:44.362Z,3.46
2017-05-22T14:37:14.248Z,1.80
2017-05-22T14:39:44.107Z,1.60
2017-05-22T14:42:13.984Z,1.62
2017-05-22T14:44:43.898Z,3.94
2017-05-22T14:47:13.772Z,2.30
2017-05-22T14:49:43.615Z,1.72
2017-05-22T14:52:13.537Z,1.52
2017-05-22T14:54:43.377Z,2.82
2017-05-22T14:57:13.216Z,3.04
2017-05-22T14:59:43.181Z,3.06
2017-05-22T15:02:13.037Z,2.06
2017-05-22T15:04:43.856Z,2.62
2017-05-22T15:07:13.766Z,3.66
2017-05-22T15:09:43.649Z,2.22
2017-05-22T15:12:12.951Z,1.98
2017-05-22T15:14:42.834Z,2.36
2017-05-22T15:17:12.665Z,4.06
2017-05-22T15:19:42.558Z,1.70
2017-05-22T15:22:12.433Z,1.80
2017-05-22T15:24:42.349Z,1.86
2017-05-22T15:27:12.199Z,3.34
2017-05-22T15:29:42.100Z,2.20
2017-05-22T15:32:11.934Z,1.66
2017-05-22T15:34:41.785Z,3.06
2017-05-22T15:37:11.669Z,1.84
2017-05-22T15:39:41.508Z,1.84
2017-05-22T15:42:11.408Z,1.78
2017-05-22T15:44:41.248Z,2.24
2017-05-22T15:47:11.140Z,2.50
2017-05-22T15:49:40.985Z,2.00
2017-05-22T15:52:10.839Z,2.34
2017-05-22T15:54:40.728Z,2.22
2017-05-22T15:57:10.566Z,1.70
2017-05-22T15:59:40.414Z,2.78
2017-05-22T16:02:10.311Z,1.80
2017-05-22T16:04:40.148Z,2.22
2017-05-22T16:07:10.018Z,2.12
2017-05-22T16:09:39.919Z,4.42
2017-05-22T16:12:09.771Z,4.08
2017-05-22T16:14:42.613Z,2.42
2017-05-22T16:17:12.448Z,2.40
2017-05-22T16:19:42.337Z,1.80
2017-05-22T16:22:12.182Z,1.84
2017-05-22T16:24:42.025Z,1.60
2017-05-22T16:27:11.917Z,1.88
2017-05-22T16:29:41.765Z,3.70
2017-05-22T16:32:11.613Z,2.62
2017-05-22T16:34:41.498Z,1.94
2017-05-22T16:37:11.375Z,5.16
2017-05-22T16:39:41.254Z,2.74
2017-05-22T16:42:11.158Z,3.04
2017-05-22T16:44:41.960Z,3.46
2017-05-22T16:47:11.848Z,1.92
2017-05-22T16:49:41.687Z,3.14
2017-05-22T16:52:11.578Z,2.40
2017-05-22T16:54:41.451Z,2.30
2017-05-22T16:57:11.292Z,2.34
2017-05-22T16:59:41.175Z,2.28
2017-05-22T17:02:11.018Z,3.20
2017-05-22T17:04:40.868Z,2.20
2017-05-22T17:07:10.753Z,2.12
2017-05-22T17:09:40.592Z,6.00
2017-05-22T17:12:10.428Z,3.28
2017-05-22T17:14:40.339Z,2.72
2017-05-22T17:17:10.181Z,3.52
2017-05-22T17:19:40.081Z,2.48
2017-05-22T17:22:09.924Z,1.90
2017-05-22T17:24:39.769Z,5.10
2017-05-22T17:27:09.657Z,3.04
2017-05-22T17:29:39.494Z,2.16
2017-05-22T17:32:09.335Z,2.52
2017-05-22T17:34:39.211Z,2.42
2017-05-22T17:37:09.050Z,2.40
2017-05-22T17:39:38.936Z,2.02
2017-05-22T17:42:08.789Z,3.00
2017-05-22T17:44:38.628Z,1.88
2017-05-22T17:47:08.508Z,2.38
2017-05-22T17:49:38.344Z,1.84
2017-05-22T17:52:08.232Z,2.18
2017-05-22T17:54:38.084Z,3.10
2017-05-22T17:57:07.929Z,2.62
2017-05-22T17:59:37.806Z,2.34
2017-05-22T18:02:07.653Z,2.44
2017-05-22T18:04:37.562Z,2.48
2017-05-22T18:07:07.447Z,3.70
2017-05-22T18:09:37.294Z,3.22
2017-05-22T18:12:07.160Z,2.46
2017-05-22T18:14:36.997Z,5.68
2017-05-22T18:17:06.891Z,2.66
2017-05-22T18:19:36.736Z,2.18
2017-05-22T18:22:06.579Z,2.26
2017-05-22T18:24:36.439Z,2.78
2017-05-22T18:27:06.299Z,1.90
2017-05-22T18:29:36.199Z,2.30
2017-05-22T18:32:06.052Z,5.24
2017-05-22T18:34:38.447Z,4.54
2017-05-22T18:37:08.284Z,2.36
2017-05-22T18:39:38.144Z,2.06
2017-05-22T18:42:08.021Z,2.40
2017-05-22T18:44:37.873Z,2.72
2017-05-22T18:47:07.760Z,2.58
2017-05-22T18:49:37.628Z,2.86
2017-05-22T18:52:07.475Z,2.94
2017-05-22T18:54:37.336Z,2.18
2017-05-22T18:57:07.182Z,2.54
2017-05-22T18:59:37.067Z,2.78
2017-05-22T19:02:06.924Z,3.02
2017-05-22T19:04:36.774Z,4.52
2017-05-22T19:07:06.641Z,2.40
2017-05-22T19:09:36.487Z,2.36
2017-05-22T19:12:06.382Z,2.34
2017-05-22T19:14:36.398Z,3.18
2017-05-22T19:17:07.322Z,2.52
2017-05-22T19:19:37.169Z,2.64
2017-05-22T19:22:07.063Z,2.58
2017-05-22T19:24:36.892Z,2.70
2017-05-22T19:27:06.743Z,2.14
2017-05-22T19:29:36.602Z,2.48
2017-05-22T19:32:06.447Z,2.58
2017-05-22T19:34:36.345Z,5.44
2017-05-22T19:37:06.179Z,2.70
2017-05-22T19:39:36.010Z,2.92
2017-05-22T19:42:05.888Z,2.54
2017-05-22T19:44:35.736Z,3.12
2017-05-22T19:47:05.620Z,2.40
2017-05-22T19:49:35.452Z,2.72
2017-05-22T19:52:05.356Z,2.84
2017-05-22T19:54:35.201Z,2.56
2017-05-22T19:57:05.032Z,2.86
2017-05-22T19:59:34.888Z,2.98
2017-05-22T20:02:04.724Z,3.90
2017-05-22T20:04:34.619Z,2.88
2017-05-22T20:07:09.839Z,3.48
2017-05-22T20:09:39.738Z,3.02
2017-05-22T20:12:09.573Z,3.02
2017-05-22T20:14:40.457Z,3.00
2017-05-22T20:17:10.295Z,2.60
2017-05-22T20:19:40.169Z,2.80
2017-05-22T20:22:10.027Z,5.96
2017-05-22T20:24:40.489Z,3.04
2017-05-22T20:27:10.368Z,2.98
2017-05-22T20:29:40.217Z,3.40
2017-05-22T20:32:10.086Z,3.32
2017-05-22T20:34:39.955Z,3.08
2017-05-22T20:37:09.796Z,3.04
2017-05-22T20:39:39.689Z,6.26
2017-05-22T20:42:09.539Z,3.26
2017-05-22T20:44:39.383Z,3.36
2017-05-22T20:47:09.246Z,3.32
2017-05-22T20:49:39.084Z,3.86
2017-05-22T20:52:08.975Z,3.82
2017-05-22T20:54:38.815Z,5.06
2017-05-22T20:57:08.659Z,4.32
2017-05-22T20:59:38.523Z,3.84
2017-05-22T21:02:08.358Z,5.28
2017-05-22T21:04:38.248Z,3.80
2017-05-22T21:07:09.107Z,4.36
2017-05-22T21:09:38.996Z,5.26
2017-05-22T21:12:08.900Z,4.28
2017-05-22T21:14:38.799Z,6.74
2017-05-22T21:17:08.660Z,4.34
2017-05-22T21:19:38.551Z,4.50
2017-05-22T21:22:08.394Z,6.50
2017-05-22T21:24:38.284Z,4.72
2017-05-22T21:27:08.125Z,5.30
2017-05-22T21:29:37.984Z,4.46
2017-05-22T21:32:07.880Z,4.64
2017-05-22T21:34:37.712Z,3.76
2017-05-22T21:37:07.620Z,4.98
2017-05-22T21:39:37.461Z,4.80
2017-05-22T21:42:07.429Z,5.78
2017-05-22T21:44:38.239Z,4.80
2017-05-22T21:47:08.131Z,4.94
2017-05-22T21:49:37.968Z,4.80
2017-05-22T21:52:07.865Z,4.54
2017-05-22T21:54:37.740Z,5.80
2017-05-22T21:57:07.586Z,5.14
2017-05-22T21:59:37.484Z,7.58
2017-05-22T22:02:07.360Z,6.86
2017-05-22T22:04:37.212Z,5.60
2017-05-22T22:07:07.128Z,5.24
2017-05-22T22:09:36.991Z,5.04
2017-05-22T22:12:06.947Z,5.08
2017-05-22T22:14:36.791Z,5.58
2017-05-22T22:17:06.645Z,7.60
2017-05-22T22:19:36.510Z,6.16
2017-05-22T22:22:06.352Z,6.48
2017-05-22T22:24:36.263Z,7.02
2017-05-22T22:27:06.103Z,6.76
2017-05-22T22:29:35.990Z,6.78
2017-05-22T22:32:05.860Z,7.94
2017-05-22T22:34:35.696Z,7.68
2017-05-22T22:37:05.571Z,7.30
2017-05-22T22:39:35.417Z,8.04
2017-05-22T22:42:05.268Z,7.36
2017-05-22T22:44:35.147Z,7.44
2017-05-22T22:47:04.988Z,8.50
2017-05-22T22:49:34.872Z,7.06
2017-05-22T22:52:04.721Z,7.00
2017-05-22T22:54:34.574Z,7.78
2017-05-22T22:57:04.442Z,7.18
2017-05-22T22:59:34.282Z,6.72
2017-05-22T23:02:04.177Z,7.54
2017-05-22T23:04:34.037Z,7.88
2017-05-22T23:07:03.876Z,7.32
2017-05-22T23:09:33.741Z,6.32
2017-05-22T23:12:03.049Z,7.70
2017-05-22T23:14:32.946Z,7.02
2017-05-22T23:17:02.783Z,6.96
2017-05-22T23:19:33.594Z,7.58
2017-05-22T23:22:03.423Z,6.88
2017-05-22T23:24:33.256Z,7.32
2017-05-22T23:27:03.122Z,8.32
2017-05-22T23:29:32.973Z,8.00
2017-05-22T23:32:02.872Z,8.06
2017-05-22T23:34:32.736Z,7.10
2017-05-22T23:37:02.571Z,7.44
2017-05-22T23:39:32.437Z,8.06
2017-05-22T23:42:02.273Z,8.12
2017-05-22T23:44:32.172Z,7.54
2017-05-22T23:47:02.017Z,8.04
2017-05-22T23:49:31.864Z,7.38
2017-05-22T23:52:01.721Z,7.28
2017-05-22T23:54:31.565Z,7.82
2017-05-22T23:57:01.462Z,7.38
2017-05-22T23:59:31.307Z,7.38
